Time;durP1;ratioP1;P1;durP2;ratioP2;P2;SDS_P1;SDS_P2;PMS_P1;PMS_P2;Temp;Humidity;BMP_temperature;BMP_pressure;BME280_temperature;BME280_humidity;BME280_pressure;Samples;Min_cycle;Max_cycle;Signal;HPM_P1;HPM_P2
2023/06/08 00:02:18;;;;;;;6.38;3.53;;;;;;;14.02;100.00;92630.53;4969531;28;20481;-78
2023/06/08 00:04:46;;;;;;;6.97;3.30;;;;;;;13.99;100.00;92623.25;4972734;28;20038;-79
2023/06/08 00:07:16;;;;;;;12.50;3.67;;;;;;;13.96;100.00;92619.38;4984302;28;20066;-78
2023/06/08 00:09:43;;;;;;;8.63;3.80;;;;;;;13.94;100.00;92622.28;4979539;28;20440;-78
2023/06/08 00:12:10;;;;;;;6.65;3.45;;;;;;;13.93;100.00;92614.69;4965307;28;20058;-79
2023/06/08 00:14:36;;;;;;;7.72;3.40;;;;;;;13.93;100.00;92617.31;4962030;28;20068;-79
2023/06/08 00:17:03;;;;;;;6.70;3.55;;;;;;;13.91;100.00;92612.34;4964094;28;20584;-79
2023/06/08 00:19:33;;;;;;;7.03;3.70;;;;;;;13.98;100.00;92606.66;4956871;28;20556;-78
2023/06/08 00:22:04;;;;;;;11.27;3.72;;;;;;;13.93;100.00;92606.78;4957959;28;20031;-78
2023/06/08 00:24:36;;;;;;;8.07;3.85;;;;;;;13.92;100.00;92602.63;4940756;29;20401;-77
2023/06/08 00:27:06;;;;;;;;;;;;;;;13.88;100.00;92597.19;4975189;28;20397;-78
2023/06/08 00:29:33;;;;;;;5.55;3.13;;;;;;;13.85;100.00;92586.50;4941980;28;19914;-78
2023/06/08 00:31:59;;;;;;;6.70;3.50;;;;;;;13.85;100.00;92584.66;4955621;28;20043;-78
2023/06/08 00:34:26;;;;;;;6.65;3.50;;;;;;;13.78;100.00;92579.03;4978916;28;20034;-78
2023/06/08 00:36:55;;;;;;;6.20;3.10;;;;;;;13.76;100.00;92583.84;4964736;28;20102;-78
2023/06/08 00:39:21;;;;;;;9.05;3.55;;;;;;;13.71;100.00;92579.47;4956449;28;20501;-78
2023/06/08 00:41:47;;;;;;;5.97;3.10;;;;;;;13.69;100.00;92575.56;4959610;28;20035;-76
2023/06/08 00:44:13;;;;;;;10.93;3.47;;;;;;;13.65;100.00;92575.41;4969700;28;20042;-78
2023/06/08 00:46:39;;;;;;;5.82;3.20;;;;;;;13.62;100.00;92568.16;4951825;28;20035;-78
2023/06/08 00:49:08;;;;;;;8.05;3.53;;;;;;;13.60;100.00;92569.50;4959839;28;20028;-78
2023/06/08 00:51:39;;;;;;;7.30;3.17;;;;;;;13.60;100.00;92569.50;4955274;28;20539;-78
2023/06/08 00:54:10;;;;;;;14.35;3.50;;;;;;;13.57;100.00;92559.59;4955628;28;20341;-78
2023/06/08 00:56:38;;;;;;;6.65;3.45;;;;;;;13.52;100.00;92550.75;4970718;28;20065;-78
2023/06/08 00:59:05;;;;;;;8.07;3.38;;;;;;;13.47;100.00;92555.38;4952768;28;20027;-79
2023/06/08 01:01:31;;;;;;;6.65;3.10;;;;;;;13.41;100.00;92552.09;4972352;28;20136;-78
2023/06/08 01:04:05;;;;;;;6.95;3.53;;;;;;;13.36;100.00;92551.44;4965092;28;20523;-78
2023/06/08 01:06:53;;;;;;;5.13;2.80;;;;;;;13.31;100.00;92547.09;4961726;28;20050;-79
2023/06/08 01:09:27;;;;;;;7.65;3.40;;;;;;;13.26;100.00;92545.34;4963098;28;20378;-78
2023/06/08 01:12:12;;;;;;;7.47;3.28;;;;;;;13.19;100.00;92544.19;4961601;28;20122;-78
2023/06/08 01:15:09;;;;;;;5.95;3.22;;;;;;;13.13;100.00;92541.69;4955819;28;20120;-78
2023/06/08 01:17:40;;;;;;;7.32;4.00;;;;;;;13.08;100.00;92541.84;4950963;28;20106;-78
2023/06/08 01:20:15;;;;;;;8.70;3.92;;;;;;;13.02;100.00;92542.25;4957118;28;20047;-78
2023/06/08 01:23:25;;;;;;;6.95;3.67;;;;;;;12.98;100.00;92536.81;4940096;28;20039;-77
2023/06/08 01:25:55;;;;;;;7.15;3.88;;;;;;;12.95;100.00;92537.41;4881145;28;20038;-78
2023/06/08 01:28:22;;;;;;;8.48;3.63;;;;;;;12.89;100.00;92533.34;4949318;28;20047;-78
2023/06/08 01:30:49;;;;;;;6.88;4.20;;;;;;;12.83;100.00;92531.91;4940781;28;20065;-77
2023/06/08 01:33:17;;;;;;;6.78;3.95;;;;;;;12.77;100.00;92525.22;4938935;29;20035;-78
2023/06/08 01:35:59;;;;;;;10.73;4.18;;;;;;;12.76;100.00;92523.66;4955197;28;20041;-77
2023/06/08 01:38:35;;;;;;;6.80;4.03;;;;;;;12.71;100.00;92525.34;4954982;28;20118;-78
2023/06/08 01:41:07;;;;;;;8.35;4.18;;;;;;;12.69;100.00;92524.09;4957844;28;20513;-78
2023/06/08 01:43:37;;;;;;;7.50;4.20;;;;;;;12.69;100.00;92519.59;4950020;28;20040;-77
2023/06/08 01:46:08;;;;;;;9.95;4.28;;;;;;;12.66;100.00;92514.94;4950921;28;20028;-78
2023/06/08 01:48:35;;;;;;;10.88;4.90;;;;;;;12.65;100.00;92515.25;4934047;28;20039;-77
2023/06/08 01:51:00;;;;;;;9.05;4.47;;;;;;;12.62;100.00;92513.97;4954506;28;20428;-78
2023/06/08 01:53:26;;;;;;;9.02;4.45;;;;;;;12.58;100.00;92513.03;4954254;28;20051;-78
2023/06/08 01:55:52;;;;;;;9.27;4.38;;;;;;;12.54;100.00;92509.47;4939135;29;20616;-78
2023/06/08 01:58:18;;;;;;;8.88;4.20;;;;;;;12.54;100.00;92512.09;4938676;29;20089;-78
2023/06/08 02:00:43;;;;;;;7.68;4.13;;;;;;;12.53;100.00;92505.28;4922266;28;20042;-77
2023/06/08 02:03:09;;;;;;;9.57;4.25;;;;;;;12.54;100.00;92498.97;4937437;29;20043;-77
2023/06/08 02:05:35;;;;;;;10.38;4.20;;;;;;;12.55;100.00;92504.97;4934170;29;20036;-78
2023/06/08 02:08:00;;;;;;;7.47;4.03;;;;;;;12.53;100.00;92500.00;4949988;28;20047;-78
2023/06/08 02:10:26;;;;;;;10.27;5.18;;;;;;;12.51;100.00;92499.53;4953025;28;20035;-78
2023/06/08 02:12:51;;;;;;;11.43;4.90;;;;;;;12.51;100.00;92504.78;4954529;28;20398;-78
2023/06/08 02:15:17;;;;;;;9.18;4.60;;;;;;;12.48;100.00;92489.63;4927468;28;20509;-78
2023/06/08 02:17:43;;;;;;;12.55;4.82;;;;;;;12.46;100.00;92495.19;4921298;28;20138;-78
2023/06/08 02:20:09;;;;;;;9.05;4.00;;;;;;;12.43;100.00;92501.03;4945330;28;20091;-78
2023/06/08 02:22:36;;;;;;;8.07;4.82;;;;;;;12.40;100.00;92487.72;4939322;28;20067;-77
2023/06/08 02:25:07;;;;;;;8.40;4.80;;;;;;;12.39;100.00;92486.16;4934320;29;20051;-78
2023/06/08 02:27:37;;;;;;;12.77;4.82;;;;;;;12.36;100.00;92486.75;4940966;28;20038;-76
2023/06/08 02:30:08;;;;;;;9.85;4.88;;;;;;;12.37;100.00;92488.31;4936468;28;20401;-79
2023/06/08 02:32:34;;;;;;;9.95;4.63;;;;;;;12.34;100.00;92483.63;4913008;29;20035;-78
2023/06/08 02:35:01;;;;;;;10.10;4.22;;;;;;;12.30;100.00;92475.59;4928933;28;20875;-78
2023/06/08 02:37:27;;;;;;;10.07;4.80;;;;;;;12.35;100.00;92487.84;4928707;29;20182;-78
2023/06/08 02:39:53;;;;;;;9.13;4.50;;;;;;;12.28;100.00;92491.63;4942647;28;20121;-78
2023/06/08 02:42:19;;;;;;;8.10;4.20;;;;;;;12.25;100.00;92483.59;4932014;29;20511;-78
2023/06/08 02:44:45;;;;;;;11.00;4.40;;;;;;;12.21;100.00;92485.25;4927077;29;20350;-78
2023/06/08 02:47:16;;;;;;;9.10;4.60;;;;;;;12.16;100.00;92483.50;4934990;28;20031;-79
2023/06/08 02:49:43;;;;;;;10.55;4.38;;;;;;;12.16;100.00;92493.22;4932393;29;20397;-78
2023/06/08 02:52:09;;;;;;;9.65;4.30;;;;;;;12.15;100.00;92499.53;4938461;28;20131;-78
2023/06/08 02:54:34;;;;;;;9.73;4.70;;;;;;;12.14;100.00;92501.41;4931251;29;20047;-78
2023/06/08 02:57:00;;;;;;;8.32;4.45;;;;;;;12.14;100.00;92495.38;4905766;28;20147;-78
2023/06/08 02:59:29;;;;;;;12.10;4.15;;;;;;;12.15;100.00;92497.69;4934908;29;20043;-78
2023/06/08 03:01:56;;;;;;;7.60;4.07;;;;;;;12.12;100.00;92492.25;4935391;28;20027;-78
2023/06/08 03:04:28;;;;;;;8.80;4.30;;;;;;;12.08;100.00;92490.22;4922076;29;20043;-77
2023/06/08 03:06:58;;;;;;;8.80;4.03;;;;;;;12.06;100.00;92488.97;4930141;29;20614;-78
2023/06/08 03:09:29;;;;;;;9.68;4.15;;;;;;;12.03;100.00;92492.19;4935081;29;20102;-78
2023/06/08 03:11:57;;;;;;;7.13;3.83;;;;;;;12.03;100.00;92492.19;4934196;28;21368;-79
2023/06/08 03:14:28;;;;;;;7.43;3.80;;;;;;;12.04;100.00;92486.63;4933984;29;20045;-78
2023/06/08 03:17:02;;;;;;;11.00;4.05;;;;;;;12.06;100.00;92491.59;4944066;28;20071;-75
2023/06/08 03:19:32;;;;;;;8.45;4.10;;;;;;;12.05;100.00;92497.91;4954044;28;20049;-78
2023/06/08 03:22:00;;;;;;;8.63;4.07;;;;;;;12.02;100.00;92501.91;4953585;28;20169;-78
2023/06/08 03:24:31;;;;;;;9.90;4.20;;;;;;;12.00;100.00;92504.03;4954211;28;20062;-78
2023/06/08 03:26:58;;;;;;;8.98;3.88;;;;;;;12.00;100.00;92506.66;4966276;28;20038;-75
2023/06/08 03:29:24;;;;;;;9.73;4.28;;;;;;;11.99;100.00;92510.34;4960788;28;20098;-77
2023/06/08 03:31:51;;;;;;;11.35;4.65;;;;;;;12.00;100.00;92513.75;4963884;28;20425;-78
2023/06/08 03:34:18;;;;;;;9.55;4.45;;;;;;;12.01;100.00;92512.69;4951784;28;20046;-78
2023/06/08 03:36:46;;;;;;;9.73;4.18;;;;;;;12.00;100.00;92506.66;4957912;28;20051;-78
2023/06/08 03:39:17;;;;;;;11.48;5.38;;;;;;;12.04;100.00;92512.84;4953065;28;20523;-78
2023/06/08 03:41:44;;;;;;;10.13;4.50;;;;;;;12.07;100.00;92504.41;4968245;28;20035;-78
2023/06/08 03:44:11;;;;;;;10.23;4.75;;;;;;;12.11;100.00;92512.47;4950638;28;20121;-78
2023/06/08 03:46:37;;;;;;;8.13;4.72;;;;;;;12.15;100.00;92513.44;4952343;28;20063;-76
2023/06/08 03:49:04;;;;;;;12.02;4.43;;;;;;;12.15;100.00;92518.69;4955121;28;20023;-78
2023/06/08 03:51:30;;;;;;;9.85;4.93;;;;;;;12.15;100.00;92517.91;4953295;28;20066;-79
2023/06/08 03:53:56;;;;;;;10.45;4.78;;;;;;;12.13;100.00;92515.56;4958822;28;20122;-77
2023/06/08 03:56:22;;;;;;;9.57;4.65;;;;;;;12.14;100.00;92514.50;4941775;28;20551;-78
2023/06/08 03:58:48;;;;;;;8.43;4.70;;;;;;;12.15;100.00;92518.69;4934747;28;20038;-77
2023/06/08 04:01:14;;;;;;;9.52;4.53;;;;;;;12.17;100.00;92519.16;4955034;28;20042;-78
2023/06/08 04:03:41;;;;;;;9.38;4.85;;;;;;;12.19;100.00;92519.66;4957318;28;20042;-78
2023/06/08 04:06:10;;;;;;;9.18;4.90;;;;;;;12.20;100.00;92513.31;4942713;28;20042;-77
2023/06/08 04:08:40;;;;;;;11.13;5.88;;;;;;;12.23;100.00;92514.59;4966871;28;20097;-78
2023/06/08 04:11:08;;;;;;;8.27;4.65;;;;;;;12.26;100.00;92519.25;4955304;28;20031;-77
2023/06/08 04:13:40;;;;;;;9.32;4.68;;;;;;;12.28;100.00;92517.88;4961347;28;20378;-78
2023/06/08 04:16:10;;;;;;;10.23;5.05;;;;;;;12.29;100.00;92511.56;4942592;28;20047;-77
2023/06/08 04:18:40;;;;;;;10.80;4.95;;;;;;;12.32;100.00;92517.31;4959060;28;20121;-77
2023/06/08 04:21:08;;;;;;;10.02;5.15;;;;;;;12.36;100.00;92508.53;4962859;28;20433;-78
2023/06/08 04:23:37;;;;;;;11.95;4.68;;;;;;;12.37;100.00;92512.72;4953117;28;20552;-78
2023/06/08 04:26:08;;;;;;;9.98;5.07;;;;;;;12.38;100.00;92510.84;4952153;28;20126;-78
2023/06/08 04:28:35;;;;;;;12.50;5.20;;;;;;;12.43;100.00;92518.63;4928644;28;20101;-78
2023/06/08 04:31:04;;;;;;;10.50;5.40;;;;;;;12.49;100.00;92525.31;4942848;28;20035;-78
2023/06/08 04:33:31;;;;;;;9.73;4.90;;;;;;;12.57;100.00;92516.72;4947172;28;20046;-78
2023/06/08 04:36:00;;;;;;;12.48;5.60;;;;;;;12.65;100.00;92526.53;4941999;28;20047;-76
2023/06/08 04:38:27;;;;;;;9.38;4.63;;;;;;;12.76;100.00;92524.44;4922729;29;20530;-76
2023/06/08 04:40:55;;;;;;;8.05;4.30;;;;;;;12.88;100.00;92526.56;4938260;29;20151;-76
2023/06/08 04:43:30;;;;;;;7.93;4.32;;;;;;;13.01;100.00;92522.28;4939261;28;20407;-77
2023/06/08 04:45:59;;;;;;;8.23;4.53;;;;;;;13.11;100.00;92520.19;4968999;28;20067;-79
2023/06/08 04:48:27;;;;;;;9.43;4.57;;;;;;;13.21;100.00;92523.66;4962099;28;20493;-79
2023/06/08 04:50:54;;;;;;;9.55;4.80;;;;;;;13.27;100.00;92530.34;4957643;28;20043;-78
2023/06/08 04:53:23;;;;;;;10.27;4.40;;;;;;;13.36;100.00;92518.03;4961840;28;20489;-81
2023/06/08 04:55:57;;;;;;;8.98;4.65;;;;;;;13.40;100.00;92523.47;4973134;28;20123;-78
2023/06/08 04:58:26;;;;;;;8.02;4.38;;;;;;;13.50;100.00;92516.09;4944444;28;20426;-77
2023/06/08 05:00:52;;;;;;;8.95;4.55;;;;;;;13.54;100.00;92519.66;4961109;28;20040;-78
2023/06/08 05:03:20;;;;;;;8.77;4.55;;;;;;;13.57;100.00;92523.53;4952773;28;20038;-78
2023/06/08 05:05:46;;;;;;;13.40;4.93;;;;;;;13.78;100.00;92533.53;4951071;28;20054;-77
2023/06/08 05:08:11;;;;;;;8.82;4.72;;;;;;;13.73;100.00;92529.19;4954224;28;20049;-78
2023/06/08 05:10:37;;;;;;;12.63;4.82;;;;;;;13.71;100.00;92529.50;4961064;28;20107;-78
2023/06/08 05:13:03;;;;;;;9.15;4.50;;;;;;;13.71;100.00;92528.69;4966890;28;20117;-77
2023/06/08 05:15:31;;;;;;;9.65;5.13;;;;;;;13.72;100.00;92535.53;4963007;28;20521;-78
2023/06/08 05:17:57;;;;;;;8.50;4.65;;;;;;;13.97;100.00;92541.97;4967527;28;20027;-78
2023/06/08 05:20:24;;;;;;;8.75;4.75;;;;;;;13.94;100.00;92538.09;4960081;28;20441;-77
2023/06/08 05:22:50;;;;;;;8.50;5.10;;;;;;;13.96;100.00;92535.16;4972484;28;20038;-77
2023/06/08 05:25:16;;;;;;;9.90;4.85;;;;;;;13.98;100.00;92529.56;4945934;28;20212;-78
2023/06/08 05:27:42;;;;;;;10.25;4.60;;;;;;;14.08;100.00;92526.66;4965843;28;20041;-78
2023/06/08 05:30:08;;;;;;;10.32;4.95;;;;;;;14.21;100.00;92536.31;4951237;28;20405;-77
2023/06/08 05:32:34;;;;;;;8.60;4.90;;;;;;;14.34;100.00;92530.13;4967082;28;20045;-78
2023/06/08 05:35:00;;;;;;;11.63;5.05;;;;;;;14.53;100.00;92529.06;4960500;28;20382;-78
2023/06/08 05:37:27;;;;;;;9.43;4.82;;;;;;;14.63;100.00;92528.78;4956861;28;20153;-78
2023/06/08 05:39:52;;;;;;;12.00;5.13;;;;;;;14.69;100.00;92530.16;4970586;28;20489;-78
2023/06/08 05:42:19;;;;;;;12.02;4.68;;;;;;;14.91;100.00;92520.56;4963203;28;20096;-79
2023/06/08 05:44:45;;;;;;;7.97;4.45;;;;;;;15.35;100.00;92521.25;4950024;28;21542;-78
2023/06/08 05:47:10;;;;;;;8.15;4.80;;;;;;;16.17;100.00;92523.78;4963294;28;20043;-77
2023/06/08 05:49:36;;;;;;;9.63;4.30;;;;;;;16.82;100.00;92519.78;4943266;28;20077;-79
2023/06/08 05:52:02;;;;;;;9.90;4.45;;;;;;;17.03;100.00;92524.28;4965393;28;20046;-79
2023/06/08 05:54:27;;;;;;;13.25;4.57;;;;;;;16.85;100.00;92526.28;4983252;28;20042;-78
2023/06/08 05:56:53;;;;;;;12.40;4.93;;;;;;;17.01;100.00;92518.53;4970347;28;20034;-79
2023/06/08 05:59:19;;;;;;;11.40;4.15;;;;;;;17.22;100.00;92513.97;4955142;28;20035;-78
2023/06/08 06:01:45;;;;;;;8.60;4.40;;;;;;;17.48;100.00;92520.88;4959558;28;20050;-79
2023/06/08 06:04:11;;;;;;;10.95;4.07;;;;;;;17.48;100.00;92523.53;4967917;28;20751;-80
2023/06/08 06:06:37;;;;;;;13.30;4.72;;;;;;;17.85;100.00;92526.25;4964954;28;20050;-78
2023/06/08 06:09:03;;;;;;;9.82;4.55;;;;;;;17.90;100.00;92515.47;4944243;28;20026;-78
2023/06/08 06:11:30;;;;;;;8.05;3.88;;;;;;;18.22;100.00;92518.34;4934858;28;20097;-79
2023/06/08 06:13:58;;;;;;;9.57;5.05;;;;;;;18.85;100.00;92520.56;4984082;28;20133;-79
2023/06/08 06:16:24;;;;;;;9.43;4.38;;;;;;;18.48;100.00;92521.38;4954861;28;20043;-79
2023/06/08 06:18:50;;;;;;;11.10;5.25;;;;;;;18.16;100.00;92519.66;4973686;28;20392;-80
2023/06/08 06:21:16;;;;;;;13.05;5.00;;;;;;;18.19;100.00;92518.97;4964565;28;20048;-79
2023/06/08 06:23:44;;;;;;;10.70;5.15;;;;;;;18.47;100.00;92530.44;4958473;28;20035;-79
2023/06/08 06:26:11;;;;;;;17.67;5.22;;;;;;;18.89;100.00;92530.16;4948684;28;20588;-84
2023/06/08 06:28:40;;;;;;;11.48;5.00;;;;;;;19.10;100.00;92526.56;4961086;28;20127;-84
2023/06/08 06:31:06;;;;;;;10.18;4.68;;;;;;;18.95;100.00;92521.97;4958904;28;20034;-79
2023/06/08 06:33:32;;;;;;;9.45;4.95;;;;;;;18.88;100.00;92522.53;4961197;28;20142;-81
2023/06/08 06:35:58;;;;;;;9.25;5.18;;;;;;;18.38;100.00;92521.84;4964452;28;20074;-80
2023/06/08 06:38:24;;;;;;;8.45;4.55;;;;;;;17.87;100.00;92519.53;4958433;28;20061;-79
2023/06/08 06:40:52;;;;;;;10.40;4.85;;;;;;;17.61;100.00;92517.16;4947727;28;20547;-81
2023/06/08 06:43:21;;;;;;;8.85;4.88;;;;;;;17.45;100.00;92518.88;4958820;28;20051;-81
2023/06/08 06:45:52;;;;;;;11.77;5.35;;;;;;;17.37;100.00;92523.16;4945695;28;20043;-79
2023/06/08 06:48:22;;;;;;;11.77;5.60;;;;;;;17.07;100.00;92530.47;4943105;28;20576;-78
2023/06/08 06:50:48;;;;;;;10.00;5.80;;;;;;;16.71;100.00;92523.88;4957414;28;20127;-78
2023/06/08 06:53:14;;;;;;;11.90;4.78;;;;;;;16.66;100.00;92524.06;4959806;28;20132;-78
2023/06/08 06:55:40;;;;;;;10.25;5.10;;;;;;;16.60;100.00;92528.00;4964051;28;20115;-78
2023/06/08 06:58:06;;;;;;;9.40;4.57;;;;;;;16.47;100.00;92529.78;4949611;28;20567;-78
2023/06/08 07:00:37;;;;;;;9.88;4.32;;;;;;;16.62;100.00;92529.22;4946326;28;20073;-78
2023/06/08 07:03:06;;;;;;;10.93;5.07;;;;;;;16.62;100.00;92531.09;4959604;28;20050;-78
2023/06/08 07:05:34;;;;;;;8.82;4.32;;;;;;;16.58;100.00;92535.47;4960914;28;20035;-78
2023/06/08 07:08:01;;;;;;;10.73;4.97;;;;;;;16.67;100.00;92538.84;4953205;28;20082;-77
2023/06/08 07:10:27;;;;;;;11.07;4.80;;;;;;;16.73;100.00;92537.56;4963449;28;20089;-78
2023/06/08 07:12:53;;;;;;;9.13;4.72;;;;;;;16.86;100.00;92543.69;4939242;28;20045;-78
2023/06/08 07:15:19;;;;;;;12.50;4.60;;;;;;;16.96;100.00;92539.91;4964559;28;20051;-76
2023/06/08 07:17:46;;;;;;;10.70;4.32;;;;;;;16.82;100.00;92548.88;4940986;28;20090;-75
2023/06/08 07:20:12;;;;;;;8.90;4.80;;;;;;;16.88;100.00;92541.50;4961763;28;20425;-77
2023/06/08 07:22:38;;;;;;;8.30;4.45;;;;;;;17.21;100.00;92546.81;4967072;28;20041;-77
2023/06/08 07:25:05;;;;;;;11.88;4.63;;;;;;;17.47;100.00;92549.22;4967097;28;20035;-78
2023/06/08 07:27:31;;;;;;;12.68;4.80;;;;;;;17.39;100.00;92551.97;4962126;28;20066;-78
2023/06/08 07:29:57;;;;;;;9.40;4.82;;;;;;;17.41;100.00;92549.75;4946844;28;20039;-77
2023/06/08 07:32:22;;;;;;;12.00;4.70;;;;;;;17.15;100.00;92558.69;4964578;28;20057;-80
2023/06/08 07:34:48;;;;;;;8.48;4.65;;;;;;;16.98;100.00;92548.28;4962750;28;20035;-81
2023/06/08 07:37:14;;;;;;;8.80;5.25;;;;;;;17.01;100.00;92548.41;4974410;28;20043;-81
2023/06/08 07:39:40;;;;;;;8.80;4.95;;;;;;;17.11;100.00;92549.84;4956707;28;20043;-80
2023/06/08 07:42:06;;;;;;;16.10;5.32;;;;;;;17.01;100.00;92550.28;4947043;28;20027;-80
2023/06/08 07:44:33;;;;;;;7.10;3.72;;;;;;;16.96;100.00;92556.53;4963124;28;20047;-79
2023/06/08 07:47:02;;;;;;;9.40;4.97;;;;;;;16.88;100.00;92560.00;4979362;28;20049;-80
2023/06/08 07:49:33;;;;;;;9.40;4.63;;;;;;;16.80;100.00;92566.91;4962638;28;20380;-80
2023/06/08 07:51:58;;;;;;;9.20;4.57;;;;;;;16.63;100.00;92564.34;4971534;28;20038;-81
2023/06/08 07:54:24;;;;;;;8.75;4.85;;;;;;;16.59;100.00;92564.22;4974554;28;20066;-80
2023/06/08 07:56:50;;;;;;;10.85;5.93;;;;;;;16.65;100.00;92562.94;4981424;28;20026;-79
2023/06/08 07:59:18;;;;;;;11.55;5.22;;;;;;;16.73;100.00;92558.69;4979827;28;20088;-80
2023/06/08 08:01:44;;;;;;;9.10;4.78;;;;;;;16.93;100.00;92561.69;4973683;28;20031;-79
2023/06/08 08:04:10;;;;;;;11.25;5.30;;;;;;;16.83;100.00;92562.84;4978328;28;20030;-81
2023/06/08 08:07:33;;;;;;;8.75;4.80;;;;;;;16.81;100.00;92555.22;4957793;28;20023;-80
2023/06/08 08:11:03;;;;;;;8.95;4.80;;;;;;;17.00;100.00;92554.00;5002160;28;20105;-78
2023/06/08 08:14:09;;;;;;;11.38;4.47;;;;;;;17.15;100.00;92560.56;4958216;29;20047;-76
2023/06/08 08:17:07;;;;;;;12.05;4.95;;;;;;;17.03;100.00;92556.78;4966774;28;20036;-80
2023/06/08 08:20:05;;;;;;;10.55;4.68;;;;;;;17.32;100.00;92557.00;4979332;28;20079;-80
2023/06/08 08:22:36;;;;;;;12.93;4.80;;;;;;;17.28;100.00;92549.72;4961165;28;20106;-79
2023/06/08 08:25:02;;;;;;;12.07;4.90;;;;;;;17.37;100.00;92554.16;4940992;28;20678;-78
2023/06/08 08:27:27;;;;;;;9.75;5.15;;;;;;;17.73;100.00;92550.06;4947470;28;20183;-79
2023/06/08 08:29:53;;;;;;;8.23;4.68;;;;;;;17.92;100.00;92557.50;4947929;28;20508;-79
2023/06/08 08:32:18;;;;;;;11.57;5.10;;;;;;;17.89;100.00;92550.97;4971014;28;20035;-80
2023/06/08 08:34:44;;;;;;;8.63;4.15;;;;;;;18.06;100.00;92548.13;4948621;28;20038;-79
2023/06/08 08:37:10;;;;;;;8.18;4.43;;;;;;;17.77;100.00;92541.13;4966339;28;20110;-78
2023/06/08 08:39:36;;;;;;;9.35;3.80;;;;;;;17.89;100.00;92543.03;4943928;28;20032;-77
2023/06/08 08:42:06;;;;;;;10.65;5.55;;;;;;;17.71;100.00;92545.06;4955985;28;20151;-78
2023/06/08 08:44:32;;;;;;;10.40;5.07;;;;;;;17.57;100.00;92548.03;4952134;28;20035;-78
2023/06/08 08:47:02;;;;;;;8.88;4.90;;;;;;;17.36;100.00;92549.94;4960692;28;20575;-79
2023/06/08 08:49:32;;;;;;;10.27;5.47;;;;;;;17.40;100.00;92542.91;4973395;28;20035;-78
2023/06/08 08:52:01;;;;;;;11.45;5.05;;;;;;;17.38;100.00;92548.53;4953900;28;20035;-78
2023/06/08 08:54:33;;;;;;;9.90;4.78;;;;;;;17.42;100.00;92543.34;4950176;28;20031;-78
2023/06/08 08:56:59;;;;;;;10.57;4.72;;;;;;;17.62;100.00;92550.47;4951995;28;20131;-78
2023/06/08 08:59:28;;;;;;;9.88;4.90;;;;;;;17.94;100.00;92548.09;4955972;28;20086;-79
2023/06/08 09:01:57;;;;;;;9.57;4.78;;;;;;;17.94;100.00;92555.28;4954391;28;20047;-79
2023/06/08 09:04:23;;;;;;;8.52;4.70;;;;;;;18.16;100.00;92548.78;4957425;28;20046;-78
2023/06/08 09:06:50;;;;;;;9.48;4.55;;;;;;;18.48;100.00;92552.41;4954729;28;20059;-78
2023/06/08 09:09:17;;;;;;;7.53;4.28;;;;;;;18.75;100.00;92544.88;4967797;28;20040;-78
2023/06/08 09:11:59;;;;;;;8.38;4.03;;;;;;;18.98;90.87;92543.31;4971620;28;20485;-78
2023/06/08 09:14:26;;;;;;;9.48;4.60;;;;;;;19.31;100.00;92540.38;4937894;28;20151;-78
2023/06/08 09:16:53;;;;;;;9.32;4.80;;;;;;;19.63;100.00;92537.78;4968020;28;20504;-79
2023/06/08 09:19:19;;;;;;;9.30;4.05;;;;;;;19.78;100.00;92540.84;4984243;28;20403;-79
2023/06/08 09:21:45;;;;;;;8.52;4.60;;;;;;;19.55;100.00;92539.50;4987959;28;20041;-79
2023/06/08 09:24:17;;;;;;;8.65;4.05;;;;;;;19.62;100.00;92535.50;4956558;28;20061;-80
2023/06/08 09:26:47;;;;;;;7.82;4.50;;;;;;;19.34;100.00;92529.13;4943231;28;20043;-79
2023/06/08 09:29:32;;;;;;;10.57;4.68;;;;;;;19.13;100.00;92533.84;4987947;28;20138;-78
2023/06/08 09:32:00;;;;;;;8.90;4.78;;;;;;;19.26;100.00;92543.28;4984368;28;20098;-81
2023/06/08 09:34:25;;;;;;;9.18;5.18;;;;;;;19.22;100.00;92537.13;4979642;28;20038;-79
2023/06/08 09:37:03;;;;;;;8.18;4.63;;;;;;;19.31;100.00;92537.72;4975562;28;20038;-83
2023/06/08 09:39:41;;;;;;;9.00;4.72;;;;;;;19.34;100.00;92534.41;4984362;28;20034;-78
2023/06/08 09:42:07;;;;;;;9.98;4.30;;;;;;;19.58;100.00;92527.44;4998802;28;20030;-79
2023/06/08 09:44:33;;;;;;;8.43;4.03;;;;;;;19.86;100.00;92534.59;4983420;28;20056;-79
2023/06/08 09:46:58;;;;;;;11.60;5.97;;;;;;;19.83;100.00;92528.06;4988314;28;20157;-79
2023/06/08 09:49:24;;;;;;;6.43;3.63;;;;;;;19.79;100.00;92527.22;4980561;28;20039;-78
2023/06/08 09:51:53;;;;;;;9.48;4.55;;;;;;;19.77;100.00;92526.81;4985224;28;20546;-80
2023/06/08 09:54:20;;;;;;;8.05;4.40;;;;;;;19.94;100.00;92515.06;4984034;28;20446;-78
2023/06/08 09:56:50;;;;;;;7.80;4.40;;;;;;;19.95;99.42;92521.94;4968781;28;20061;-78
2023/06/08 09:59:17;;;;;;;8.85;5.13;;;;;;;20.09;95.76;92519.59;4990005;28;20033;-80
2023/06/08 10:01:52;;;;;;;10.65;4.13;;;;;;;20.17;98.81;92513.34;4979835;28;20043;-81
2023/06/08 10:04:32;;;;;;;9.85;4.43;;;;;;;20.06;95.40;92514.97;4986391;28;20037;-79
2023/06/08 10:07:08;;;;;;;9.52;5.13;;;;;;;20.07;97.00;92508.53;4990260;28;20030;-78
2023/06/08 10:09:37;;;;;;;8.88;4.80;;;;;;;20.15;93.96;92510.25;4981334;28;20058;-77
2023/06/08 10:12:04;;;;;;;8.20;4.22;;;;;;;20.18;93.12;92512.22;4981816;28;20049;-80
2023/06/08 10:14:31;;;;;;;9.73;5.28;;;;;;;20.08;82.33;92509.31;4977103;28;20046;-78
2023/06/08 10:16:57;;;;;;;8.65;4.40;;;;;;;20.24;79.72;92507.41;4978804;28;20047;-79
2023/06/08 10:19:24;;;;;;;7.82;4.97;;;;;;;20.32;76.96;92505.69;4983259;28;20035;-80
2023/06/08 10:21:52;;;;;;;9.27;4.95;;;;;;;20.30;80.28;92502.59;4979761;28;20404;-79
2023/06/08 10:24:20;;;;;;;10.32;4.70;;;;;;;20.58;69.81;92507.81;4988003;28;20495;-79
2023/06/08 10:26:48;;;;;;;6.32;3.53;;;;;;;20.86;67.11;92507.63;4981490;28;20030;-79
2023/06/08 10:29:14;;;;;;;6.90;3.95;;;;;;;20.67;62.67;92504.94;4951286;28;20481;-80
2023/06/08 10:31:42;;;;;;;6.22;3.60;;;;;;;20.83;56.29;92502.22;4967299;28;20034;-79
2023/06/08 10:34:10;;;;;;;8.40;4.28;;;;;;;20.79;60.54;92504.81;4981529;28;20042;-79
2023/06/08 10:36:39;;;;;;;6.68;3.72;;;;;;;21.11;66.46;92496.69;4988314;28;20030;-79
2023/06/08 10:39:10;;;;;;;8.07;4.03;;;;;;;21.28;66.92;92496.28;4976043;28;20509;-79
2023/06/08 10:41:41;;;;;;;8.30;4.28;;;;;;;21.34;65.56;92488.75;4982690;28;20073;-80
2023/06/08 10:44:36;;;;;;;7.53;4.28;;;;;;;21.26;65.21;92489.75;4983346;28;20030;-80
2023/06/08 10:47:05;;;;;;;8.50;3.70;;;;;;;21.33;66.52;92485.31;4961475;28;20042;-79
2023/06/08 10:49:38;;;;;;;8.93;3.08;;;;;;;21.15;66.73;92482.34;4978264;28;20027;-78
2023/06/08 10:52:06;;;;;;;8.23;4.60;;;;;;;21.34;67.31;92484.19;4989659;28;20039;-79
2023/06/08 10:54:53;;;;;;;7.57;3.75;;;;;;;21.48;65.96;92488.25;4984105;28;20092;-78
2023/06/08 10:57:40;;;;;;;7.22;3.63;;;;;;;21.50;69.78;92481.47;4999416;28;20038;-78
2023/06/08 11:00:29;;;;;;;10.68;4.47;;;;;;;21.38;70.08;92479.69;4985127;28;20430;-79
2023/06/08 11:03:06;;;;;;;9.85;4.60;;;;;;;21.39;73.83;92475.16;4977494;28;20045;-80
2023/06/08 11:05:33;;;;;;;8.73;4.65;;;;;;;21.51;72.08;92474.25;4973731;28;20035;-79
2023/06/08 11:08:00;;;;;;;7.93;4.32;;;;;;;21.79;67.15;92481.94;4990931;28;20030;-80
2023/06/08 11:10:27;;;;;;;10.38;4.97;;;;;;;21.73;65.64;92475.38;4971992;28;20516;-80
2023/06/08 11:12:55;;;;;;;8.98;4.45;;;;;;;21.57;66.87;92472.81;4981866;28;20040;-78
2023/06/08 11:15:21;;;;;;;7.47;3.88;;;;;;;21.57;69.92;92462.97;4986571;28;20045;-80
2023/06/08 11:17:56;;;;;;;7.43;4.35;;;;;;;21.48;71.93;92469.63;4980985;28;20051;-78
2023/06/08 11:20:26;;;;;;;8.38;4.60;;;;;;;21.70;70.74;92468.84;4984401;28;20532;-78
2023/06/08 11:22:52;;;;;;;7.28;3.97;;;;;;;21.42;67.95;92474.47;4986975;28;20045;-78
2023/06/08 11:25:21;;;;;;;13.00;5.03;;;;;;;21.37;69.65;92469.44;4977419;28;20030;-78
2023/06/08 11:27:52;;;;;;;8.43;4.75;;;;;;;21.52;68.61;92467.78;4985200;28;20133;-78
2023/06/08 11:30:24;;;;;;;10.07;4.65;;;;;;;21.58;68.83;92455.72;4965396;28;20555;-78
2023/06/08 11:32:50;;;;;;;;;;;;;;;21.61;68.88;92460.34;4981612;28;20037;-78
2023/06/08 11:35:21;;;;;;;8.95;4.45;;;;;;;21.41;65.37;92460.41;4993903;28;19925;-78